RA87669 UWLL-UWKD
Flight info
| Callsign | RA87669 |
|---|---|
| Flight time | 0h 29m |
| Altitude | 19000 |
| Route | AGUTO1M AGUTO T789 SONUM SONUM1T |
| Aircraft | YK40/M-SDFIRWY/H |
Departure
| Time | 2026-04-25 11:07 |
|---|---|
| Airport | Ulyanovsk Baratayevka Airport (UWLL) |
Arrival
| Time | 2026-04-25 11:36 |
|---|---|
| Airport | Kazan International Airport (UWKD) |
| Time | Latitude | Longitude | Altitude | Speed | Heading |
|---|---|---|---|---|---|
| 2026-04-25 10:47 | 54.28640 | 48.23206 | 467 ft | 0 kts | 121° |
| 2026-04-25 11:00 | 54.28639 | 48.23208 | 467 ft | 0 kts | 121° |
| 2026-04-25 11:00 | 54.28626 | 48.23244 | 467 ft | 7 kts | 122° |
| 2026-04-25 11:00 | 54.28588 | 48.23256 | 467 ft | 5 kts | 216° |
| 2026-04-25 11:01 | 54.28547 | 48.23210 | 467 ft | 6 kts | 192° |
| 2026-04-25 11:01 | 54.28516 | 48.23267 | 467 ft | 8 kts | 121° |
| 2026-04-25 11:01 | 54.28485 | 48.23356 | 467 ft | 8 kts | 121° |
| 2026-04-25 11:01 | 54.28460 | 48.23425 | 467 ft | 5 kts | 122° |
| 2026-04-25 11:02 | 54.28442 | 48.23472 | 467 ft | 3 kts | 123° |
| 2026-04-25 11:02 | 54.28432 | 48.23497 | 467 ft | 1 kts | 123° |
| 2026-04-25 11:02 | 54.28430 | 48.23502 | 467 ft | 0 kts | 123° |
| 2026-04-25 11:03 | 54.28426 | 48.23513 | 467 ft | 2 kts | 122° |
| 2026-04-25 11:03 | 54.28410 | 48.23558 | 467 ft | 6 kts | 122° |
| 2026-04-25 11:03 | 54.28386 | 48.23623 | 467 ft | 6 kts | 121° |
| 2026-04-25 11:03 | 54.28371 | 48.23665 | 467 ft | 0 kts | 122° |
| 2026-04-25 11:04 | 54.28370 | 48.23666 | 467 ft | 0 kts | 122° |
| 2026-04-25 11:04 | 54.28368 | 48.23671 | 467 ft | 2 kts | 122° |
| 2026-04-25 11:04 | 54.28338 | 48.23753 | 467 ft | 9 kts | 122° |
| 2026-04-25 11:04 | 54.28327 | 48.23784 | 467 ft | 0 kts | 122° |
| 2026-04-25 11:05 | 54.28325 | 48.23788 | 467 ft | 2 kts | 122° |
| 2026-04-25 11:06 | 54.28299 | 48.23857 | 467 ft | 11 kts | 128° |
| 2026-04-25 11:06 | 54.28222 | 48.23846 | 467 ft | 10 kts | 212° |
| 2026-04-25 11:06 | 54.28198 | 48.23818 | 467 ft | 0 kts | 212° |
| 2026-04-25 11:06 | 54.28096 | 48.23705 | 467 ft | 44 kts | 213° |
| 2026-04-25 11:07 | 54.27697 | 48.23276 | 467 ft | 99 kts | 205° |
| 2026-04-25 11:07 | 54.27034 | 48.22606 | 597 ft | 126 kts | 220° |
| 2026-04-25 11:07 | 54.26252 | 48.21724 | 950 ft | 136 kts | 221° |
| 2026-04-25 11:07 | 54.25497 | 48.20853 | 1382 ft | 142 kts | 223° |
| 2026-04-25 11:08 | 54.24683 | 48.19887 | 1905 ft | 144 kts | 223° |
| 2026-04-25 11:08 | 54.23838 | 48.18912 | 2355 ft | 151 kts | 223° |
| 2026-04-25 11:08 | 54.22962 | 48.17876 | 2818 ft | 156 kts | 223° |
| 2026-04-25 11:08 | 54.22081 | 48.16793 | 3328 ft | 156 kts | 227° |
| 2026-04-25 11:09 | 54.21721 | 48.15173 | 3785 ft | 149 kts | 277° |
| 2026-04-25 11:09 | 54.22112 | 48.13541 | 4165 ft | 163 kts | 313° |
| 2026-04-25 11:09 | 54.23237 | 48.12870 | 4585 ft | 188 kts | 355° |
| 2026-04-25 11:09 | 54.24568 | 48.13137 | 5110 ft | 200 kts | 5° |
| 2026-04-25 11:10 | 54.25912 | 48.13803 | 5818 ft | 200 kts | 9° |
| 2026-04-25 11:10 | 54.26796 | 48.14203 | 6324 ft | 197 kts | 7° |
| 2026-04-25 11:10 | 54.28503 | 48.14964 | 7112 ft | 200 kts | 8° |
| 2026-04-25 11:10 | 54.29858 | 48.15578 | 7695 ft | 203 kts | 8° |
| 2026-04-25 11:11 | 54.31223 | 48.16195 | 8278 ft | 206 kts | 8° |
| 2026-04-25 11:11 | 54.32600 | 48.16833 | 8863 ft | 208 kts | 8° |
| 2026-04-25 11:11 | 54.33986 | 48.17475 | 9501 ft | 209 kts | 7° |
| 2026-04-25 11:11 | 54.35397 | 48.18140 | 10123 ft | 210 kts | 8° |
| 2026-04-25 11:12 | 54.36806 | 48.18801 | 10769 ft | 212 kts | 8° |
| 2026-04-25 11:12 | 54.38216 | 48.19455 | 11387 ft | 212 kts | 8° |
| 2026-04-25 11:12 | 54.39634 | 48.20113 | 11985 ft | 213 kts | 7° |
| 2026-04-25 11:12 | 54.41050 | 48.20763 | 12577 ft | 214 kts | 7° |
| 2026-04-25 11:13 | 54.42495 | 48.21426 | 13161 ft | 214 kts | 8° |
| 2026-04-25 11:13 | 54.43923 | 48.22078 | 13732 ft | 215 kts | 7° |
| 2026-04-25 11:13 | 54.45355 | 48.22728 | 14297 ft | 216 kts | 7° |
| 2026-04-25 11:13 | 54.46799 | 48.23387 | 14868 ft | 216 kts | 7° |
| 2026-04-25 11:14 | 54.48255 | 48.24055 | 15423 ft | 217 kts | 7° |
| 2026-04-25 11:14 | 54.49681 | 48.24761 | 15961 ft | 220 kts | 14° |
| 2026-04-25 11:14 | 54.51009 | 48.26143 | 16527 ft | 227 kts | 36° |
| 2026-04-25 11:14 | 54.52132 | 48.28015 | 17036 ft | 228 kts | 37° |
| 2026-04-25 11:15 | 54.53299 | 48.29925 | 17419 ft | 235 kts | 37° |
| 2026-04-25 11:15 | 54.54502 | 48.31847 | 17793 ft | 242 kts | 37° |
| 2026-04-25 11:15 | 54.55759 | 48.33833 | 18138 ft | 249 kts | 37° |
| 2026-04-25 11:15 | 54.57052 | 48.35864 | 18500 ft | 256 kts | 37° |
| 2026-04-25 11:16 | 54.59895 | 48.40248 | 18621 ft | 290 kts | 36° |
| 2026-04-25 11:16 | 54.61340 | 48.42446 | 18679 ft | 303 kts | 37° |
| 2026-04-25 11:16 | 54.62962 | 48.44892 | 18641 ft | 318 kts | 37° |
| 2026-04-25 11:17 | 54.64651 | 48.47488 | 18643 ft | 330 kts | 38° |
| 2026-04-25 11:17 | 54.66334 | 48.50168 | 18614 ft | 330 kts | 38° |
| 2026-04-25 11:17 | 54.67997 | 48.52802 | 18598 ft | 323 kts | 38° |
| 2026-04-25 11:17 | 54.69642 | 48.55407 | 18601 ft | 319 kts | 38° |
| 2026-04-25 11:18 | 54.71239 | 48.57944 | 18601 ft | 315 kts | 38° |
| 2026-04-25 11:18 | 54.72863 | 48.60530 | 18603 ft | 312 kts | 38° |
| 2026-04-25 11:18 | 54.74456 | 48.63067 | 18603 ft | 310 kts | 38° |
| 2026-04-25 11:18 | 54.76030 | 48.65575 | 18607 ft | 308 kts | 39° |
| 2026-04-25 11:19 | 54.77597 | 48.68064 | 18607 ft | 306 kts | 39° |
| 2026-04-25 11:19 | 54.79168 | 48.70556 | 18604 ft | 305 kts | 39° |
| 2026-04-25 11:19 | 54.80732 | 48.73040 | 18592 ft | 304 kts | 39° |
| 2026-04-25 11:19 | 54.82276 | 48.75495 | 18594 ft | 304 kts | 39° |
| 2026-04-25 11:20 | 54.83848 | 48.77993 | 18595 ft | 303 kts | 39° |
| 2026-04-25 11:20 | 54.85390 | 48.80442 | 18597 ft | 302 kts | 39° |
| 2026-04-25 11:20 | 54.86926 | 48.82878 | 18609 ft | 302 kts | 39° |
| 2026-04-25 11:20 | 54.88649 | 48.84891 | 18643 ft | 293 kts | 21° |
| 2026-04-25 11:21 | 54.90514 | 48.86433 | 18607 ft | 294 kts | 21° |
| 2026-04-25 11:21 | 54.92224 | 48.87893 | 18609 ft | 294 kts | 22° |
| 2026-04-25 11:21 | 54.94040 | 48.89465 | 18630 ft | 294 kts | 22° |
| 2026-04-25 11:21 | 54.95872 | 48.91060 | 18616 ft | 294 kts | 22° |
| 2026-04-25 11:22 | 54.97691 | 48.92645 | 18613 ft | 294 kts | 22° |
| 2026-04-25 11:22 | 54.98917 | 48.93712 | 18614 ft | 294 kts | 22° |
| 2026-04-25 11:22 | 55.01366 | 48.95843 | 18618 ft | 294 kts | 22° |
| 2026-04-25 11:22 | 55.03175 | 48.97502 | 18627 ft | 295 kts | 26° |
| 2026-04-25 11:23 | 55.04960 | 48.99345 | 18445 ft | 298 kts | 26° |
| 2026-04-25 11:23 | 55.06739 | 49.01148 | 18145 ft | 293 kts | 26° |
| 2026-04-25 11:23 | 55.08477 | 49.02895 | 17835 ft | 287 kts | 26° |
| 2026-04-25 11:23 | 55.10192 | 49.04615 | 17510 ft | 282 kts | 25° |
| 2026-04-25 11:24 | 55.11883 | 49.06313 | 17176 ft | 279 kts | 25° |
| 2026-04-25 11:24 | 55.13560 | 49.08001 | 16840 ft | 276 kts | 25° |
| 2026-04-25 11:24 | 55.15216 | 49.09669 | 16424 ft | 277 kts | 25° |
| 2026-04-25 11:24 | 55.16888 | 49.11425 | 15789 ft | 286 kts | 31° |
| 2026-04-25 11:25 | 55.18463 | 49.13514 | 15193 ft | 290 kts | 33° |
| 2026-04-25 11:25 | 55.20079 | 49.15659 | 14579 ft | 293 kts | 33° |
| 2026-04-25 11:25 | 55.21702 | 49.17794 | 13984 ft | 294 kts | 33° |
| 2026-04-25 11:25 | 55.23337 | 49.19947 | 13398 ft | 294 kts | 33° |
| 2026-04-25 11:26 | 55.24940 | 49.22062 | 12830 ft | 293 kts | 33° |
| 2026-04-25 11:26 | 55.26557 | 49.24202 | 12263 ft | 291 kts | 33° |
| 2026-04-25 11:26 | 55.28165 | 49.26338 | 11703 ft | 288 kts | 33° |
| 2026-04-25 11:26 | 55.29758 | 49.28404 | 11153 ft | 283 kts | 32° |
| 2026-04-25 11:27 | 55.31274 | 49.30407 | 10599 ft | 269 kts | 32° |
| 2026-04-25 11:27 | 55.32723 | 49.32357 | 10034 ft | 257 kts | 32° |
| 2026-04-25 11:27 | 55.34108 | 49.34247 | 9460 ft | 248 kts | 32° |
| 2026-04-25 11:27 | 55.35000 | 49.35448 | 9086 ft | 242 kts | 30° |
| 2026-04-25 11:28 | 55.36773 | 49.37719 | 8325 ft | 235 kts | 30° |
| 2026-04-25 11:28 | 55.38070 | 49.39416 | 7750 ft | 230 kts | 30° |
| 2026-04-25 11:28 | 55.39347 | 49.41103 | 7181 ft | 226 kts | 30° |
| 2026-04-25 11:28 | 55.40591 | 49.42756 | 6626 ft | 229 kts | 30° |
| 2026-04-25 11:29 | 55.41869 | 49.44454 | 6082 ft | 234 kts | 30° |
| 2026-04-25 11:29 | 55.43191 | 49.46210 | 5539 ft | 237 kts | 30° |
| 2026-04-25 11:29 | 55.44494 | 49.47936 | 5017 ft | 238 kts | 30° |
| 2026-04-25 11:29 | 55.45826 | 49.49575 | 4539 ft | 227 kts | 28° |
| 2026-04-25 11:30 | 55.47012 | 49.51059 | 4396 ft | 190 kts | 28° |
| 2026-04-25 11:30 | 55.48006 | 49.52367 | 4147 ft | 172 kts | 28° |
| 2026-04-25 11:30 | 55.48943 | 49.53623 | 3715 ft | 168 kts | 28° |
| 2026-04-25 11:30 | 55.49834 | 49.54826 | 3289 ft | 166 kts | 28° |
| 2026-04-25 11:31 | 55.50785 | 49.55858 | 2795 ft | 157 kts | 6° |
| 2026-04-25 11:31 | 55.51713 | 49.55397 | 2430 ft | 139 kts | 309° |
| 2026-04-25 11:31 | 55.51932 | 49.53776 | 2327 ft | 140 kts | 270° |
| 2026-04-25 11:31 | 55.51897 | 49.52043 | 2317 ft | 143 kts | 271° |
| 2026-04-25 11:32 | 55.51888 | 49.50279 | 2323 ft | 143 kts | 276° |
| 2026-04-25 11:32 | 55.52280 | 49.48700 | 2325 ft | 144 kts | 308° |
| 2026-04-25 11:32 | 55.52896 | 49.47309 | 2353 ft | 143 kts | 304° |
| 2026-04-25 11:32 | 55.53499 | 49.45890 | 2377 ft | 143 kts | 305° |
| 2026-04-25 11:33 | 55.54093 | 49.44473 | 2394 ft | 144 kts | 304° |
| 2026-04-25 11:33 | 55.54672 | 49.43022 | 2338 ft | 148 kts | 304° |
| 2026-04-25 11:33 | 55.55281 | 49.41530 | 2239 ft | 146 kts | 304° |
| 2026-04-25 11:33 | 55.55861 | 49.40128 | 2092 ft | 136 kts | 304° |
| 2026-04-25 11:34 | 55.56403 | 49.38830 | 1886 ft | 128 kts | 304° |
| 2026-04-25 11:34 | 55.56910 | 49.37625 | 1730 ft | 111 kts | 304° |
| 2026-04-25 11:34 | 55.57344 | 49.36560 | 1543 ft | 108 kts | 302° |
| 2026-04-25 11:34 | 55.57777 | 49.35448 | 1414 ft | 113 kts | 302° |
| 2026-04-25 11:35 | 55.58161 | 49.34298 | 1208 ft | 121 kts | 299° |
| 2026-04-25 11:35 | 55.58614 | 49.33100 | 983 ft | 114 kts | 301° |
| 2026-04-25 11:35 | 55.59037 | 49.31968 | 762 ft | 111 kts | 301° |
| 2026-04-25 11:35 | 55.59473 | 49.30849 | 592 ft | 110 kts | 301° |
| 2026-04-25 11:36 | 55.59911 | 49.29724 | 456 ft | 107 kts | 301° |
| 2026-04-25 11:36 | 55.60288 | 49.28751 | 421 ft | 82 kts | 303° |
| 2026-04-25 11:36 | 55.60550 | 49.28074 | 421 ft | 51 kts | 304° |
| 2026-04-25 11:36 | 55.60731 | 49.27602 | 421 ft | 45 kts | 305° |
| 2026-04-25 11:37 | 55.60888 | 49.27180 | 421 ft | 37 kts | 303° |
| 2026-04-25 11:37 | 55.61016 | 49.26868 | 421 ft | 25 kts | 306° |
| 2026-04-25 11:37 | 55.61081 | 49.26791 | 421 ft | 8 kts | 8° |
| 2026-04-25 11:37 | 55.61122 | 49.26815 | 421 ft | 4 kts | 30° |
| 2026-04-25 11:38 | 55.61143 | 49.26837 | 421 ft | 2 kts | 33° |
| 2026-04-25 11:38 | 55.61154 | 49.26850 | 421 ft | 1 kts | 33° |
| 2026-04-25 11:38 | 55.61171 | 49.26870 | 421 ft | 5 kts | 32° |
| 2026-04-25 11:38 | 55.61210 | 49.26942 | 421 ft | 12 kts | 68° |
| 2026-04-25 11:39 | 55.61174 | 49.27117 | 421 ft | 19 kts | 123° |
| 2026-04-25 11:39 | 55.61080 | 49.27359 | 421 ft | 27 kts | 124° |
| 2026-04-25 11:39 | 55.60959 | 49.27672 | 421 ft | 34 kts | 124° |
| 2026-04-25 11:39 | 55.60808 | 49.28064 | 421 ft | 41 kts | 124° |
| 2026-04-25 11:40 | 55.60640 | 49.28498 | 421 ft | 36 kts | 122° |
| 2026-04-25 11:40 | 55.60585 | 49.28782 | 421 ft | 23 kts | 94° |
| 2026-04-25 11:40 | 55.60575 | 49.29050 | 421 ft | 20 kts | 93° |
| 2026-04-25 11:40 | 55.60595 | 49.29271 | 421 ft | 17 kts | 50° |
| 2026-04-25 11:41 | 55.60661 | 49.29380 | 421 ft | 10 kts | 121° |
| 2026-04-25 11:41 | 55.60624 | 49.29477 | 421 ft | 7 kts | 123° |
| 2026-04-25 11:41 | 55.60639 | 49.29516 | 421 ft | 2 kts | 32° |
| 2026-04-25 11:41 | 55.60643 | 49.29520 | 421 ft | 0 kts | 34° |